Time;durP1;ratioP1;P1;durP2;ratioP2;P2;SDS_P1;SDS_P2;PMS_P1;PMS_P2;Temp;Humidity;BMP_temperature;BMP_pressure;BME280_temperature;BME280_humidity;BME280_pressure;Samples;Min_cycle;Max_cycle;Signal;HPM_P1;HPM_P2
2021/03/06 00:00:09;;;;;;;9.83;4.80;;;3.10;66.80;;;;;;5080025;28;20226;-83
2021/03/06 00:02:35;;;;;;;10.65;5.47;;;3.20;66.80;;;;;;5080030;28;20207;-83
2021/03/06 00:05:01;;;;;;;8.07;4.60;;;3.20;66.80;;;;;;5078979;28;20601;-83
2021/03/06 00:07:27;;;;;;;6.60;4.38;;;3.20;66.80;;;;;;5069446;28;20204;-83
2021/03/06 00:09:53;;;;;;;9.10;4.07;;;3.20;66.90;;;;;;5058939;28;20177;-83
2021/03/06 00:12:19;;;;;;;5.80;4.10;;;3.10;67.10;;;;;;5058807;28;20428;-84
2021/03/06 00:14:44;;;;;;;8.00;3.90;;;3.10;67.30;;;;;;5062884;28;20455;-84
2021/03/06 00:17:10;;;;;;;5.80;4.90;;;3.10;67.30;;;;;;5096505;28;20215;-83
2021/03/06 00:19:36;;;;;;;8.07;4.10;;;3.20;67.20;;;;;;5097655;28;20185;-84
2021/03/06 00:22:02;;;;;;;4.93;4.20;;;3.00;67.30;;;;;;5097405;28;20264;-82
2021/03/06 00:24:28;;;;;;;5.22;3.90;;;3.10;67.50;;;;;;5097477;28;20248;-83
2021/03/06 00:26:55;;;;;;;10.55;5.35;;;3.10;67.50;;;;;;5096648;28;20208;-83
2021/03/06 00:29:20;;;;;;;11.43;4.75;;;3.00;67.50;;;;;;5096460;28;20173;-83
2021/03/06 00:31:46;;;;;;;7.53;4.30;;;3.00;67.60;;;;;;5097999;28;20236;-83
2021/03/06 00:34:12;;;;;;;13.00;5.10;;;3.10;67.80;;;;;;5096338;28;20481;-83
2021/03/06 00:36:38;;;;;;;7.87;4.07;;;3.00;67.90;;;;;;5078144;28;20429;-84
2021/03/06 00:39:05;;;;;;;10.23;5.00;;;3.00;67.90;;;;;;5076843;28;20270;-84
2021/03/06 00:41:31;;;;;;;8.13;4.75;;;3.00;68.00;;;;;;5075959;28;20454;-83
2021/03/06 00:43:57;;;;;;;7.20;4.35;;;3.00;68.20;;;;;;5079640;28;20181;-82
2021/03/06 00:46:23;;;;;;;8.80;4.80;;;2.80;68.50;;;;;;5097226;28;20184;-83
2021/03/06 00:48:49;;;;;;;6.03;4.77;;;2.80;68.80;;;;;;5098177;28;20224;-83
2021/03/06 00:51:15;;;;;;;7.25;3.80;;;2.90;69.00;;;;;;5081816;28;20909;-82
2021/03/06 00:53:41;;;;;;;9.43;5.30;;;2.80;69.20;;;;;;5056934;28;20216;-82
2021/03/06 00:56:06;;;;;;;6.57;4.00;;;2.80;69.40;;;;;;5056417;28;20474;-83
2021/03/06 00:58:32;;;;;;;8.27;4.83;;;2.90;69.40;;;;;;5056844;28;20211;-83
2021/03/06 01:00:59;;;;;;;7.70;4.63;;;3.00;69.30;;;;;;5057648;28;20423;-84
2021/03/06 01:03:25;;;;;;;8.02;4.18;;;3.10;69.20;;;;;;5057521;28;20439;-84
2021/03/06 01:05:51;;;;;;;9.07;5.00;;;3.00;68.90;;;;;;5055816;28;20173;-84
2021/03/06 01:08:16;;;;;;;12.30;5.30;;;2.90;69.10;;;;;;5054268;28;20279;-83
2021/03/06 01:10:44;;;;;;;9.97;4.93;;;2.90;69.20;;;;;;5054299;28;20587;-84
2021/03/06 01:13:13;;;;;;;9.85;4.82;;;2.90;69.40;;;;;;5054554;28;20522;-83
2021/03/06 01:15:39;;;;;;;10.68;4.60;;;2.90;69.30;;;;;;5065869;28;20222;-83
2021/03/06 01:18:07;;;;;;;12.57;5.25;;;3.00;69.30;;;;;;5075083;28;20184;-83
2021/03/06 01:20:34;;;;;;;7.05;4.32;;;3.00;69.20;;;;;;5075428;28;20585;-84
2021/03/06 01:23:00;;;;;;;6.47;4.93;;;2.80;69.40;;;;;;5075534;28;20271;-83
2021/03/06 01:25:25;;;;;;;7.97;4.45;;;2.70;69.70;;;;;;5074875;28;20187;-83
2021/03/06 01:27:52;;;;;;;5.88;5.28;;;2.90;69.80;;;;;;5077064;28;20207;-83
2021/03/06 01:30:19;;;;;;;12.53;5.70;;;2.80;69.80;;;;;;5076569;28;20176;-84
2021/03/06 01:32:45;;;;;;;7.35;4.82;;;2.70;70.00;;;;;;5076205;28;20885;-83
2021/03/06 01:35:12;;;;;;;8.83;4.30;;;2.80;70.10;;;;;;5075558;28;20242;-83
2021/03/06 01:37:39;;;;;;;10.30;4.80;;;2.80;70.20;;;;;;5075803;28;20492;-83
2021/03/06 01:40:11;;;;;;;11.70;5.60;;;2.90;70.20;;;;;;5075743;28;20243;-84
2021/03/06 01:42:38;;;;;;;11.57;5.70;;;2.90;70.10;;;;;;5074068;28;20216;-83
2021/03/06 01:45:06;;;;;;;9.05;5.40;;;2.90;70.00;;;;;;5069522;28;20272;-83
2021/03/06 01:47:33;;;;;;;13.95;6.25;;;2.70;70.10;;;;;;5055635;28;20274;-83
2021/03/06 01:49:58;;;;;;;8.95;5.00;;;2.80;70.20;;;;;;5053682;28;20202;-83
2021/03/06 01:52:25;;;;;;;11.50;4.87;;;2.80;70.00;;;;;;5067799;28;20619;-83
2021/03/06 01:54:54;;;;;;;19.55;5.25;;;2.90;70.10;;;;;;5076193;28;20184;-83
2021/03/06 01:57:19;;;;;;;10.80;5.32;;;2.70;69.90;;;;;;5078020;28;20161;-83
2021/03/06 01:59:45;;;;;;;11.93;5.10;;;2.60;70.30;;;;;;5076429;28;20314;-83
2021/03/06 02:02:12;;;;;;;9.60;5.50;;;2.70;70.50;;;;;;5073334;28;20462;-83
2021/03/06 02:04:38;;;;;;;19.15;6.03;;;2.60;70.50;;;;;;5073276;28;20180;-83
2021/03/06 02:07:05;;;;;;;11.40;5.10;;;2.50;70.70;;;;;;5067606;28;20205;-83
2021/03/06 02:09:31;;;;;;;11.30;5.65;;;2.40;70.90;;;;;;5053315;28;20235;-83
2021/03/06 02:12:05;;;;;;;10.60;5.75;;;2.60;71.00;;;;;;5053913;28;20205;-83
2021/03/06 02:14:40;;;;;;;13.38;6.00;;;2.50;71.00;;;;;;5056277;28;20526;-83
2021/03/06 02:17:11;;;;;;;13.05;4.72;;;2.40;71.10;;;;;;5072500;28;20263;-83
2021/03/06 02:20:14;;;;;;;10.07;5.75;;;2.40;71.20;;;;;;5073321;28;20259;-83
2021/03/06 02:23:09;;;;;;;10.63;5.25;;;2.50;71.40;;;;;;5053085;28;20201;-83
2021/03/06 02:25:44;;;;;;;7.28;4.72;;;2.30;71.60;;;;;;5054961;28;20659;-82
2021/03/06 02:28:27;;;;;;;12.30;5.03;;;2.10;72.00;;;;;;5052823;28;20205;-82
2021/03/06 02:30:56;;;;;;;7.65;5.22;;;2.10;72.30;;;;;;5052713;28;20276;-83
2021/03/06 02:33:27;;;;;;;7.82;5.35;;;2.20;72.30;;;;;;5056988;28;20178;-83
2021/03/06 02:35:54;;;;;;;9.80;5.22;;;2.20;72.30;;;;;;5076573;28;20157;-83
2021/03/06 02:38:25;;;;;;;15.80;4.90;;;2.10;72.50;;;;;;5075855;28;20632;-83
2021/03/06 02:40:52;;;;;;;6.78;4.88;;;2.10;72.50;;;;;;5072755;28;20188;-83
2021/03/06 02:43:18;;;;;;;8.35;4.72;;;2.00;72.60;;;;;;5074233;28;20172;-82
2021/03/06 02:45:45;;;;;;;5.75;5.25;;;1.90;72.80;;;;;;5072930;28;20189;-82
2021/03/06 02:48:11;;;;;;;8.07;5.15;;;2.00;72.90;;;;;;5072523;28;20674;-82
2021/03/06 02:50:37;;;;;;;10.57;5.70;;;2.10;72.90;;;;;;5072444;28;20183;-82
2021/03/06 02:53:03;;;;;;;8.30;5.10;;;2.00;72.80;;;;;;5075694;28;20533;-82
2021/03/06 02:55:28;;;;;;;11.13;5.27;;;2.10;72.90;;;;;;5074406;28;20432;-82
2021/03/06 02:58:31;;;;;;;9.70;5.50;;;2.00;72.80;;;;;;5087583;28;20181;-83
2021/03/06 03:01:15;;;;;;;11.10;5.18;;;2.00;72.90;;;;;;5090251;28;20180;-83
2021/03/06 03:04:06;;;;;;;6.35;4.45;;;2.00;73.10;;;;;;5091219;28;20165;-82
2021/03/06 03:06:37;;;;;;;10.23;5.43;;;2.00;73.10;;;;;;5087756;28;20176;-82
2021/03/06 03:09:19;;;;;;;9.85;5.53;;;2.10;73.00;;;;;;5065126;28;20710;-82
2021/03/06 03:11:48;;;;;;;22.15;5.07;;;2.00;73.10;;;;;;5061511;28;20199;-84
2021/03/06 03:14:21;;;;;;;14.05;5.25;;;2.00;73.10;;;;;;5056520;28;20203;-83
2021/03/06 03:16:55;;;;;;;7.38;5.07;;;2.00;73.00;;;;;;5055556;28;20191;-83
2021/03/06 03:19:35;;;;;;;9.13;5.68;;;2.00;73.10;;;;;;5055524;28;20192;-83
2021/03/06 03:22:05;;;;;;;19.25;5.07;;;2.00;73.10;;;;;;5054331;28;20288;-83
2021/03/06 03:24:36;;;;;;;6.45;4.20;;;1.90;73.20;;;;;;5054581;28;20203;-83
2021/03/06 03:27:09;;;;;;;7.40;4.65;;;2.00;73.20;;;;;;5066347;28;20193;-83
2021/03/06 03:29:39;;;;;;;7.25;4.90;;;2.00;73.00;;;;;;5078569;28;20191;-83
2021/03/06 03:32:07;;;;;;;18.77;5.13;;;2.20;73.00;;;;;;5078011;28;20196;-83
2021/03/06 03:34:35;;;;;;;11.32;5.43;;;2.30;72.70;;;;;;5075987;28;20192;-84
2021/03/06 03:37:01;;;;;;;6.88;4.65;;;2.20;72.40;;;;;;5078248;28;20173;-83
2021/03/06 03:39:28;;;;;;;11.07;6.10;;;2.20;72.40;;;;;;5078348;28;20189;-84
2021/03/06 03:41:54;;;;;;;10.90;5.53;;;2.20;72.30;;;;;;5078941;28;20208;-83
2021/03/06 03:44:20;;;;;;;7.20;4.32;;;2.30;72.50;;;;;;5079038;28;20188;-83
2021/03/06 03:46:47;;;;;;;5.70;4.07;;;2.30;72.40;;;;;;5078786;28;20269;-83
2021/03/06 03:49:20;;;;;;;10.23;5.38;;;2.30;72.10;;;;;;5062088;28;20266;-84
2021/03/06 03:51:46;;;;;;;12.88;4.88;;;2.30;72.00;;;;;;5078026;28;20283;-84
2021/03/06 03:54:14;;;;;;;20.80;5.78;;;2.20;71.90;;;;;;5078548;28;20176;-83
2021/03/06 03:56:41;;;;;;;15.80;5.70;;;2.20;72.00;;;;;;5078689;28;20176;-83
2021/03/06 03:59:07;;;;;;;8.05;5.05;;;2.10;72.10;;;;;;5078734;28;20186;-84
2021/03/06 04:01:44;;;;;;;11.93;4.88;;;2.00;72.30;;;;;;5078994;28;20192;-84
2021/03/06 04:04:26;;;;;;;8.60;5.20;;;1.90;72.60;;;;;;5081221;28;20161;-84
2021/03/06 04:07:00;;;;;;;7.53;4.80;;;1.90;72.80;;;;;;5091149;28;20158;-84
2021/03/06 04:09:26;;;;;;;11.95;6.30;;;2.00;72.80;;;;;;5063553;28;20207;-84
2021/03/06 04:11:52;;;;;;;10.85;5.18;;;1.90;72.90;;;;;;5077617;28;20196;-84
2021/03/06 04:14:18;;;;;;;8.00;4.90;;;1.80;73.00;;;;;;5078509;28;20184;-84
2021/03/06 04:16:44;;;;;;;9.43;5.68;;;1.80;73.40;;;;;;5081770;28;20176;-84
2021/03/06 04:19:10;;;;;;;9.82;5.13;;;1.80;73.40;;;;;;5082205;28;20183;-84
2021/03/06 04:21:36;;;;;;;8.60;4.40;;;1.80;73.50;;;;;;5081765;28;20196;-84
2021/03/06 04:24:02;;;;;;;15.33;6.17;;;1.80;73.40;;;;;;5081374;28;20685;-84
2021/03/06 04:26:28;;;;;;;12.25;6.00;;;1.70;73.50;;;;;;5078838;28;20464;-84
2021/03/06 04:28:54;;;;;;;9.50;5.17;;;1.70;73.70;;;;;;5080743;28;20732;-84
2021/03/06 04:31:19;;;;;;;8.43;6.13;;;1.90;73.70;;;;;;5080520;28;20219;-84
2021/03/06 04:33:45;;;;;;;9.93;5.63;;;2.00;73.50;;;;;;5080531;28;20478;-83
2021/03/06 04:36:12;;;;;;;9.53;5.80;;;1.90;73.30;;;;;;5081149;28;20546;-83
2021/03/06 04:38:38;;;;;;;13.50;6.35;;;2.00;73.10;;;;;;5078867;28;20418;-83
2021/03/06 04:41:03;;;;;;;10.57;5.43;;;1.80;73.10;;;;;;5061575;28;20193;-83
2021/03/06 04:43:29;;;;;;;9.03;5.10;;;1.90;73.30;;;;;;5065160;28;20458;-82
2021/03/06 04:45:55;;;;;;;11.20;5.53;;;1.90;73.10;;;;;;5079661;28;20494;-83
2021/03/06 04:48:21;;;;;;;7.57;5.77;;;2.00;73.10;;;;;;5078255;28;20462;-83
2021/03/06 04:50:47;;;;;;;11.60;4.57;;;2.00;73.00;;;;;;5078001;28;20180;-84
2021/03/06 04:53:13;;;;;;;8.88;4.70;;;2.00;72.80;;;;;;5078202;28;20184;-82
2021/03/06 04:55:39;;;;;;;5.70;5.10;;;1.90;72.80;;;;;;5078497;28;20176;-83
2021/03/06 04:58:05;;;;;;;10.65;5.45;;;1.90;72.80;;;;;;5078327;28;20180;-83
2021/03/06 05:00:31;;;;;;;6.93;4.77;;;1.90;73.00;;;;;;5077669;28;20203;-82
2021/03/06 05:02:57;;;;;;;10.68;4.75;;;1.70;73.20;;;;;;5077371;28;20204;-83
2021/03/06 05:05:23;;;;;;;9.57;4.80;;;1.70;73.00;;;;;;5076376;28;20184;-83
2021/03/06 05:07:49;;;;;;;6.45;4.75;;;1.70;73.70;;;;;;5075993;28;20276;-83
2021/03/06 05:10:16;;;;;;;9.65;6.57;;;1.60;73.80;;;;;;5075157;28;20204;-83
2021/03/06 05:12:41;;;;;;;11.20;5.07;;;1.60;74.00;;;;;;5075659;28;20185;-82
2021/03/06 05:15:08;;;;;;;14.47;5.27;;;1.70;74.10;;;;;;5075176;28;20263;-82
2021/03/06 05:17:34;;;;;;;11.05;6.15;;;1.80;74.10;;;;;;5074656;28;20419;-82
2021/03/06 05:19:59;;;;;;;11.90;5.35;;;1.70;74.00;;;;;;5075591;28;20195;-82
2021/03/06 05:22:26;;;;;;;12.00;6.00;;;1.60;74.00;;;;;;5074601;28;20578;-82
2021/03/06 05:24:51;;;;;;;15.25;6.22;;;1.50;74.20;;;;;;5074532;28;20188;-82
2021/03/06 05:27:17;;;;;;;9.53;5.37;;;1.40;74.50;;;;;;5074574;28;20193;-82
2021/03/06 05:29:44;;;;;;;8.33;5.90;;;1.30;74.70;;;;;;5074723;28;20542;-82
2021/03/06 05:32:10;;;;;;;7.07;5.13;;;1.40;75.00;;;;;;5074389;28;20198;-83
2021/03/06 05:34:36;;;;;;;11.93;5.80;;;1.50;74.90;;;;;;5074572;28;20546;-83
2021/03/06 05:37:02;;;;;;;10.50;6.97;;;1.40;74.80;;;;;;5074140;28;20414;-83
2021/03/06 05:39:28;;;;;;;9.05;5.78;;;1.40;75.00;;;;;;5072419;28;20205;-83
2021/03/06 05:41:55;;;;;;;12.97;6.17;;;1.50;75.10;;;;;;5053665;28;20244;-83
2021/03/06 05:44:21;;;;;;;17.13;7.38;;;1.50;74.90;;;;;;5068522;28;20226;-83
2021/03/06 05:46:47;;;;;;;13.05;6.10;;;1.40;75.00;;;;;;5075592;28;20234;-83
2021/03/06 05:49:14;;;;;;;13.43;6.22;;;1.40;75.20;;;;;;5074194;28;20177;-83
2021/03/06 05:51:40;;;;;;;10.80;6.30;;;1.50;75.40;;;;;;5068018;28;20201;-83
2021/03/06 05:54:10;;;;;;;16.70;6.00;;;1.40;75.10;;;;;;5062445;28;20610;-83
2021/03/06 05:56:43;;;;;;;9.82;6.15;;;1.50;75.20;;;;;;5076467;28;20180;-83
2021/03/06 05:59:13;;;;;;;11.95;6.22;;;1.40;75.10;;;;;;5076364;28;20177;-83
2021/03/06 06:01:44;;;;;;;10.80;6.07;;;1.50;75.20;;;;;;5073432;28;20201;-83
2021/03/06 06:04:10;;;;;;;10.13;5.78;;;1.60;75.00;;;;;;5073393;28;20180;-82
2021/03/06 06:06:38;;;;;;;12.55;5.50;;;1.60;74.70;;;;;;5074978;28;20655;-82
2021/03/06 06:09:06;;;;;;;8.52;6.22;;;1.60;74.60;;;;;;5073268;28;20203;-83
2021/03/06 06:11:32;;;;;;;11.02;6.13;;;1.50;74.80;;;;;;5072705;28;20207;-82
2021/03/06 06:13:59;;;;;;;8.20;5.63;;;1.60;74.80;;;;;;5073829;28;20200;-82
2021/03/06 06:16:35;;;;;;;6.65;5.47;;;1.50;74.70;;;;;;5073380;28;20426;-82
2021/03/06 06:19:03;;;;;;;15.98;6.88;;;1.30;75.00;;;;;;5073598;28;20211;-81
2021/03/06 06:21:38;;;;;;;15.48;5.93;;;1.30;75.10;;;;;;5072830;28;20196;-82
2021/03/06 06:24:09;;;;;;;14.20;8.25;;;1.20;75.40;;;;;;5072986;28;20291;-82
2021/03/06 06:26:36;;;;;;;8.70;6.05;;;1.40;75.50;;;;;;5073087;28;20325;-82
2021/03/06 06:29:02;;;;;;;19.63;7.03;;;1.40;75.20;;;;;;5073562;28;20295;-83
2021/03/06 06:31:28;;;;;;;13.23;7.38;;;1.20;75.40;;;;;;5072059;28;20699;-82
2021/03/06 06:33:54;;;;;;;11.20;6.43;;;1.40;75.50;;;;;;5072902;28;20271;-81
2021/03/06 06:36:34;;;;;;;10.30;6.60;;;1.50;75.40;;;;;;5073256;28;20222;-82
2021/03/06 06:39:01;;;;;;;15.35;7.85;;;1.40;75.10;;;;;;5073008;28;20199;-80
2021/03/06 06:41:56;;;;;;;19.98;7.70;;;1.40;74.90;;;;;;5052381;28;20240;-82
2021/03/06 06:44:23;;;;;;;17.98;6.22;;;1.50;74.90;;;;;;5067089;28;20184;-82
2021/03/06 06:46:50;;;;;;;13.18;6.40;;;1.40;74.80;;;;;;5073298;28;20542;-82
2021/03/06 06:49:17;;;;;;;12.20;6.20;;;1.50;75.00;;;;;;5073718;28;20180;-83
2021/03/06 06:51:58;;;;;;;12.23;7.22;;;1.70;74.80;;;;;;5073667;28;20250;-82
2021/03/06 06:54:24;;;;;;;11.50;6.97;;;1.60;74.50;;;;;;5074488;28;20188;-83
2021/03/06 06:56:50;;;;;;;12.00;6.70;;;1.50;74.50;;;;;;5074940;28;20172;-83
2021/03/06 06:59:17;;;;;;;10.40;6.27;;;1.60;74.50;;;;;;5075551;28;20410;-82
2021/03/06 07:01:44;;;;;;;10.32;6.53;;;1.60;74.60;;;;;;5073192;28;20437;-82
2021/03/06 07:04:11;;;;;;;9.27;6.22;;;1.60;74.50;;;;;;5072578;28;20184;-82
2021/03/06 07:06:38;;;;;;;12.68;6.30;;;1.70;74.30;;;;;;5071370;28;20187;-83
2021/03/06 07:09:12;;;;;;;13.93;7.32;;;1.70;74.30;;;;;;5070526;28;20239;-82
2021/03/06 07:11:40;;;;;;;13.30;7.40;;;1.80;74.10;;;;;;5072540;28;20192;-81
2021/03/06 07:14:07;;;;;;;17.65;7.43;;;1.80;73.90;;;;;;5072609;28;20204;-81
2021/03/06 07:16:56;;;;;;;9.95;6.70;;;1.90;73.70;;;;;;5072653;28;20636;-81
2021/03/06 07:19:23;;;;;;;18.15;7.90;;;2.00;73.30;;;;;;5074301;28;20161;-81
2021/03/06 07:21:50;;;;;;;15.13;6.72;;;1.90;73.00;;;;;;5072255;28;20198;-81
2021/03/06 07:24:16;;;;;;;12.00;7.13;;;2.00;72.90;;;;;;5072442;28;20184;-81
2021/03/06 07:26:42;;;;;;;10.27;6.45;;;1.90;72.80;;;;;;5072700;28;20181;-82
2021/03/06 07:29:08;;;;;;;14.75;7.75;;;2.00;72.70;;;;;;5072114;28;20216;-81
2021/03/06 07:31:38;;;;;;;14.15;8.32;;;1.90;72.60;;;;;;5072726;28;20192;-81
2021/03/06 07:34:08;;;;;;;12.65;8.75;;;1.90;72.60;;;;;;5072180;28;20203;-81
2021/03/06 07:36:37;;;;;;;20.00;8.70;;;2.10;72.60;;;;;;5073527;28;20157;-81
2021/03/06 07:39:11;;;;;;;8.82;7.72;;;2.10;72.50;;;;;;5073865;28;20286;-81
2021/03/06 07:41:47;;;;;;;12.65;7.63;;;2.20;72.30;;;;;;5052489;28;20692;-81
2021/03/06 07:44:18;;;;;;;16.45;9.65;;;2.20;71.70;;;;;;5064472;28;20220;-82
2021/03/06 07:46:44;;;;;;;12.20;7.80;;;2.20;71.50;;;;;;5052673;28;20193;-82
2021/03/06 07:49:12;;;;;;;10.73;7.63;;;2.30;71.50;;;;;;5069049;28;20185;-83
2021/03/06 07:51:46;;;;;;;13.77;7.60;;;2.40;71.30;;;;;;5075190;28;20212;-81
2021/03/06 07:54:15;;;;;;;14.45;7.25;;;2.30;71.20;;;;;;5076149;28;20235;-82
2021/03/06 07:56:41;;;;;;;12.15;8.77;;;2.30;71.10;;;;;;5074690;28;20192;-82
2021/03/06 07:59:08;;;;;;;9.32;7.05;;;2.30;71.00;;;;;;5075310;28;20180;-82
2021/03/06 08:01:35;;;;;;;13.77;7.70;;;2.40;70.80;;;;;;5075878;28;20511;-82
2021/03/06 08:04:08;;;;;;;10.88;8.15;;;2.50;70.60;;;;;;5073598;28;20180;-84
2021/03/06 08:06:34;;;;;;;15.35;7.93;;;2.60;70.20;;;;;;5075150;28;20196;-79
2021/03/06 08:09:08;;;;;;;11.15;7.60;;;2.50;70.10;;;;;;5073951;28;20236;-80
2021/03/06 08:11:34;;;;;;;12.68;7.72;;;2.60;69.90;;;;;;5072869;28;20562;-80
2021/03/06 08:14:06;;;;;;;12.50;8.93;;;2.70;69.50;;;;;;5074675;28;20181;-80
2021/03/06 08:16:32;;;;;;;13.80;8.30;;;2.70;69.10;;;;;;5076220;28;20577;-80
2021/03/06 08:19:13;;;;;;;12.32;7.93;;;2.70;69.10;;;;;;5075529;28;20234;-80
2021/03/06 08:21:43;;;;;;;22.67;9.35;;;2.80;68.70;;;;;;5075693;28;20784;-82
2021/03/06 08:24:15;;;;;;;13.20;9.13;;;2.90;68.60;;;;;;5075880;28;20539;-82
2021/03/06 08:26:52;;;;;;;12.70;8.20;;;2.90;68.10;;;;;;5068063;28;20177;-81
2021/03/06 08:29:24;;;;;;;11.38;7.53;;;3.10;68.00;;;;;;5056061;28;20173;-82
2021/03/06 08:32:04;;;;;;;14.88;8.20;;;3.20;67.20;;;;;;5056507;28;20185;-82
2021/03/06 08:34:50;;;;;;;13.02;8.32;;;3.20;67.40;;;;;;5056848;28;20189;-83
2021/03/06 08:37:16;;;;;;;14.30;7.00;;;3.40;66.90;;;;;;5057328;28;20165;-82
2021/03/06 08:39:52;;;;;;;9.13;7.47;;;3.50;66.30;;;;;;5057787;28;20181;-81
2021/03/06 08:42:20;;;;;;;17.80;8.55;;;3.60;65.60;;;;;;5057777;28;20447;-82
2021/03/06 08:44:47;;;;;;;9.60;8.60;;;3.50;65.10;;;;;;5074698;28;20177;-82
2021/03/06 08:47:22;;;;;;;10.43;7.25;;;3.70;65.30;;;;;;5077826;28;20188;-83
2021/03/06 08:49:51;;;;;;;9.02;7.50;;;3.50;64.10;;;;;;5077522;28;20207;-82
2021/03/06 08:52:18;;;;;;;10.98;7.88;;;3.70;64.20;;;;;;5081764;28;20200;-81
2021/03/06 08:54:43;;;;;;;9.85;7.65;;;3.80;63.90;;;;;;5083069;28;20172;-83
2021/03/06 08:57:45;;;;;;;16.93;7.60;;;3.70;63.70;;;;;;5079843;28;20258;-83
2021/03/06 09:00:20;;;;;;;11.73;7.28;;;3.70;63.70;;;;;;5019451;28;20424;-82
2021/03/06 09:02:46;;;;;;;12.15;7.00;;;3.90;63.30;;;;;;5069503;28;20563;-82
2021/03/06 09:05:21;;;;;;;9.32;6.82;;;4.00;62.60;;;;;;5076601;28;20188;-83
2021/03/06 09:07:49;;;;;;;9.40;6.97;;;4.10;62.00;;;;;;5075787;28;20202;-82
2021/03/06 09:10:42;;;;;;;10.40;7.43;;;4.10;61.00;;;;;;5077049;28;20536;-82
2021/03/06 09:13:15;;;;;;;10.07;7.10;;;4.20;60.70;;;;;;5069034;28;20205;-82
2021/03/06 09:15:46;;;;;;;18.08;8.38;;;4.10;59.90;;;;;;5075209;28;20621;-83
2021/03/06 09:18:24;;;;;;;17.42;8.95;;;4.20;59.40;;;;;;5075084;28;20184;-83
2021/03/06 09:20:54;;;;;;;7.22;6.25;;;4.50;59.00;;;;;;5075484;28;20523;-83
2021/03/06 09:23:32;;;;;;;8.32;6.50;;;4.50;58.10;;;;;;5075284;28;20180;-83
2021/03/06 09:26:06;;;;;;;10.85;6.50;;;4.70;57.50;;;;;;5074264;28;20189;-83
2021/03/06 09:28:33;;;;;;;8.38;6.57;;;4.70;56.90;;;;;;5076201;28;20197;-83
2021/03/06 09:31:01;;;;;;;6.90;5.55;;;4.70;56.90;;;;;;5075934;28;20259;-83
2021/03/06 09:33:27;;;;;;;8.57;5.78;;;4.70;56.30;;;;;;5074920;28;20222;-82
2021/03/06 09:35:58;;;;;;;9.37;5.23;;;4.70;56.00;;;;;;5074689;28;20184;-82
2021/03/06 09:38:25;;;;;;;11.73;6.40;;;4.70;55.70;;;;;;5077487;28;20220;-82
2021/03/06 09:40:51;;;;;;;10.38;5.35;;;4.90;55.80;;;;;;5079524;28;20185;-83
2021/03/06 09:43:24;;;;;;;9.15;5.93;;;5.20;55.40;;;;;;5078791;28;20180;-83
2021/03/06 09:45:50;;;;;;;5.82;4.97;;;5.30;55.50;;;;;;5078531;28;20169;-83
2021/03/06 09:48:16;;;;;;;6.43;4.93;;;5.40;55.30;;;;;;5075140;28;20207;-83
2021/03/06 09:50:46;;;;;;;10.73;5.33;;;5.50;54.70;;;;;;5075696;28;20415;-84
2021/03/06 09:53:16;;;;;;;8.50;5.60;;;5.60;53.80;;;;;;5059957;28;20178;-84
2021/03/06 09:55:42;;;;;;;6.63;4.78;;;5.60;53.00;;;;;;5058638;28;20169;-82
2021/03/06 09:58:16;;;;;;;12.70;5.10;;;5.60;52.50;;;;;;5056960;28;20177;-83
2021/03/06 10:00:41;;;;;;;6.85;5.93;;;5.60;52.50;;;;;;5057610;28;20455;-82
2021/03/06 10:03:07;;;;;;;7.50;5.13;;;5.50;52.60;;;;;;5056337;28;20254;-84
2021/03/06 10:05:34;;;;;;;12.00;4.50;;;5.60;52.80;;;;;;5055034;28;20181;-83
2021/03/06 10:08:00;;;;;;;5.18;4.68;;;5.60;52.00;;;;;;5054175;28;20243;-83
2021/03/06 10:10:26;;;;;;;7.28;4.95;;;5.70;51.40;;;;;;5054272;28;20181;-84
2021/03/06 10:13:00;;;;;;;5.40;4.18;;;5.80;51.30;;;;;;5056625;28;20196;-84
2021/03/06 10:15:26;;;;;;;6.43;4.72;;;5.90;50.90;;;;;;5054862;28;20178;-84
2021/03/06 10:17:52;;;;;;;7.43;5.10;;;6.00;50.50;;;;;;5055292;28;20584;-83
2021/03/06 10:20:27;;;;;;;9.43;5.07;;;6.10;49.90;;;;;;5054660;28;20184;-83
2021/03/06 10:22:53;;;;;;;6.90;4.25;;;6.10;49.30;;;;;;5053798;28;20495;-82
2021/03/06 10:25:26;;;;;;;4.05;3.75;;;5.80;48.60;;;;;;5054631;28;20173;-82
2021/03/06 10:27:52;;;;;;;7.72;4.50;;;5.90;48.70;;;;;;5072987;28;20207;-83
2021/03/06 10:30:19;;;;;;;7.93;4.10;;;6.00;48.60;;;;;;5075349;28;20176;-83
2021/03/06 10:33:05;;;;;;;6.43;4.13;;;6.00;48.00;;;;;;5074000;28;20582;-83
2021/03/06 10:35:39;;;;;;;4.45;3.50;;;6.10;47.50;;;;;;5073690;28;20169;-83
2021/03/06 10:38:10;;;;;;;10.27;4.13;;;6.10;47.70;;;;;;5075160;28;20638;-83
2021/03/06 10:40:43;;;;;;;4.70;3.83;;;6.10;47.00;;;;;;5073736;28;20176;-85
2021/03/06 10:43:10;;;;;;;3.72;3.40;;;6.30;46.40;;;;;;5074844;28;20212;-84
2021/03/06 10:45:39;;;;;;;6.38;3.90;;;6.30;46.10;;;;;;5074095;28;20172;-84
2021/03/06 10:48:06;;;;;;;4.28;3.38;;;6.40;46.30;;;;;;5074886;28;20287;-84
2021/03/06 10:50:36;;;;;;;4.00;3.60;;;6.50;45.90;;;;;;5076246;28;20236;-84
2021/03/06 10:53:16;;;;;;;11.88;3.58;;;6.40;45.50;;;;;;5077624;28;20287;-83
2021/03/06 10:55:43;;;;;;;4.43;3.70;;;6.50;44.70;;;;;;5080488;28;20214;-84
2021/03/06 10:58:09;;;;;;;8.68;4.80;;;6.60;44.70;;;;;;5078811;28;20184;-82
2021/03/06 11:00:37;;;;;;;4.32;3.92;;;6.60;45.40;;;;;;5083005;28;20231;-85
2021/03/06 11:03:05;;;;;;;14.02;4.03;;;6.70;45.50;;;;;;5079555;28;20226;-86
2021/03/06 11:05:32;;;;;;;6.93;4.93;;;6.70;45.60;;;;;;5077411;28;20230;-85
2021/03/06 11:08:11;;;;;;;5.30;4.20;;;6.60;45.60;;;;;;5077876;28;20211;-85
2021/03/06 11:10:45;;;;;;;10.77;4.78;;;6.60;46.40;;;;;;5077269;28;20207;-86
2021/03/06 11:13:11;;;;;;;7.65;4.68;;;6.80;46.00;;;;;;5076478;28;20628;-86
2021/03/06 11:15:48;;;;;;;8.33;4.37;;;6.80;45.80;;;;;;5075784;28;20186;-86
2021/03/06 11:18:14;;;;;;;6.47;4.82;;;6.80;45.40;;;;;;5076100;28;20270;-85
2021/03/06 11:20:40;;;;;;;6.97;4.00;;;7.00;45.60;;;;;;5074875;28;20674;-86
2021/03/06 11:23:07;;;;;;;5.20;3.90;;;6.90;45.40;;;;;;5075710;28;20487;-86
2021/03/06 11:25:33;;;;;;;4.50;4.10;;;6.70;45.40;;;;;;5074913;28;20184;-86
2021/03/06 11:28:02;;;;;;;6.03;3.80;;;6.70;46.00;;;;;;5076093;28;20327;-84
2021/03/06 11:30:32;;;;;;;4.78;4.47;;;6.80;45.60;;;;;;5073466;28;20212;-84
2021/03/06 11:32:59;;;;;;;7.70;4.70;;;7.00;45.80;;;;;;5073447;28;20678;-84
2021/03/06 11:35:25;;;;;;;5.60;3.97;;;7.00;44.90;;;;;;5073375;28;20180;-84
2021/03/06 11:38:13;;;;;;;7.93;4.65;;;7.10;45.00;;;;;;5083145;28;20169;-89
2021/03/06 11:40:48;;;;;;;5.55;4.10;;;7.30;44.50;;;;;;5075743;28;20187;-84
2021/03/06 11:43:15;;;;;;;5.75;5.15;;;7.30;44.50;;;;;;5073511;28;20226;-84
2021/03/06 11:45:41;;;;;;;4.45;3.75;;;7.20;44.30;;;;;;5073324;28;20192;-84
2021/03/06 11:48:08;;;;;;;5.80;4.90;;;7.10;44.50;;;;;;5075398;28;20208;-84
2021/03/06 11:50:37;;;;;;;6.85;4.40;;;7.10;44.70;;;;;;5077101;28;20267;-82
2021/03/06 11:53:04;;;;;;;6.53;4.57;;;7.20;44.80;;;;;;5078379;28;20656;-83
2021/03/06 11:55:29;;;;;;;9.93;4.85;;;7.30;44.60;;;;;;5078974;28;20338;-84
2021/03/06 11:57:55;;;;;;;5.63;5.20;;;7.30;45.00;;;;;;5078863;28;20196;-84
2021/03/06 12:00:24;;;;;;;5.27;4.87;;;7.40;44.30;;;;;;5079562;28;20439;-84
2021/03/06 12:02:50;;;;;;;9.25;4.72;;;7.40;44.60;;;;;;5080730;28;20817;-84
2021/03/06 12:05:17;;;;;;;6.57;5.13;;;7.20;45.30;;;;;;5077220;28;20561;-84
2021/03/06 12:07:44;;;;;;;6.70;4.90;;;7.30;45.20;;;;;;5065720;28;20264;-84
2021/03/06 12:10:12;;;;;;;6.05;5.15;;;7.60;45.20;;;;;;5057071;28;20185;-84
2021/03/06 12:12:39;;;;;;;9.88;4.82;;;7.50;45.20;;;;;;5056278;28;20197;-84
2021/03/06 12:15:06;;;;;;;5.90;4.50;;;7.50;44.80;;;;;;5057051;28;20178;-84
2021/03/06 12:17:38;;;;;;;10.10;5.07;;;7.50;44.70;;;;;;5057866;28;20260;-84
2021/03/06 12:20:05;;;;;;;6.00;4.57;;;7.50;44.70;;;;;;5058223;28;20663;-84
2021/03/06 12:22:39;;;;;;;8.23;4.28;;;7.60;44.80;;;;;;5058275;28;20193;-83
2021/03/06 12:25:07;;;;;;;5.93;4.32;;;7.70;44.70;;;;;;5057387;28;20230;-84
2021/03/06 12:27:36;;;;;;;4.40;3.97;;;7.70;44.20;;;;;;5056587;28;20186;-85
2021/03/06 12:30:08;;;;;;;6.15;4.53;;;7.80;44.10;;;;;;5058172;28;20181;-84
2021/03/06 12:32:34;;;;;;;7.00;5.15;;;7.90;44.20;;;;;;5057052;28;20189;-84
2021/03/06 12:35:07;;;;;;;7.05;4.70;;;7.60;44.70;;;;;;5057268;28;20290;-85
2021/03/06 12:37:33;;;;;;;4.95;4.55;;;7.60;44.50;;;;;;5057212;28;20166;-85
2021/03/06 12:39:59;;;;;;;4.53;3.95;;;7.60;44.50;;;;;;5057250;28;20189;-84
2021/03/06 12:42:25;;;;;;;8.52;4.32;;;7.30;44.60;;;;;;5057896;28;20213;-83
2021/03/06 12:44:51;;;;;;;6.20;4.50;;;7.20;45.00;;;;;;5057470;28;20245;-84
2021/03/06 12:47:16;;;;;;;7.17;4.47;;;7.40;45.30;;;;;;5056884;28;20513;-84
2021/03/06 12:49:42;;;;;;;6.40;4.83;;;7.30;45.20;;;;;;5056360;28;20227;-85
2021/03/06 12:52:08;;;;;;;5.83;4.90;;;7.50;44.90;;;;;;5068832;28;20438;-84
2021/03/06 12:54:34;;;;;;;9.93;5.13;;;7.60;44.50;;;;;;5078500;28;20515;-85
2021/03/06 12:57:00;;;;;;;11.13;5.87;;;7.40;44.90;;;;;;5078817;28;20925;-84
2021/03/06 12:59:26;;;;;;;8.20;5.73;;;7.60;45.40;;;;;;5077867;28;20615;-84
2021/03/06 13:01:52;;;;;;;6.65;4.60;;;7.60;46.10;;;;;;5079375;28;20438;-83